Time;durP1;ratioP1;P1;durP2;ratioP2;P2;SDS_P1;SDS_P2;PMS_P1;PMS_P2;Temp;Humidity;BMP_temperature;BMP_pressure;BME280_temperature;BME280_humidity;BME280_pressure;Samples;Min_cycle;Max_cycle;Signal;HPM_P1;HPM_P2
2022/05/31 00:00:32;;;;;;;5.05;3.22;;;;;;;15.40;46.72;101272.50;4996155;28;20053;-64
2022/05/31 00:03:02;;;;;;;4.45;3.38;;;;;;;15.40;47.02;101272.50;4995577;28;20097;-65
2022/05/31 00:05:28;;;;;;;6.70;4.00;;;;;;;15.41;46.78;101276.94;4995042;28;20499;-64
2022/05/31 00:07:55;;;;;;;5.53;3.47;;;;;;;15.40;46.79;101272.50;4995744;28;20056;-64
2022/05/31 00:10:22;;;;;;;6.38;3.60;;;;;;;15.40;46.89;101271.66;4978013;28;20039;-64
2022/05/31 00:12:50;;;;;;;5.55;3.92;;;;;;;15.40;46.99;101268.94;4995453;28;20046;-63
2022/05/31 00:15:18;;;;;;;6.85;4.18;;;;;;;15.38;47.00;101263.66;4978193;28;20403;-64
2022/05/31 00:17:45;;;;;;;6.18;3.40;;;;;;;15.34;47.20;101262.19;4995529;28;20042;-64
2022/05/31 00:20:13;;;;;;;4.00;3.28;;;;;;;15.28;46.98;101257.31;4994845;28;20048;-64
2022/05/31 00:22:41;;;;;;;5.88;3.30;;;;;;;15.21;46.89;101265.09;4995235;28;20043;-64
2022/05/31 00:25:09;;;;;;;5.20;3.72;;;;;;;15.17;46.88;101262.75;4995182;28;20053;-64
2022/05/31 00:27:36;;;;;;;6.28;3.28;;;;;;;15.12;46.85;101262.28;4995283;28;20515;-64
2022/05/31 00:30:04;;;;;;;7.03;3.53;;;;;;;15.09;47.01;101259.84;4977875;28;20412;-63
2022/05/31 00:32:34;;;;;;;5.95;3.40;;;;;;;15.07;47.19;101259.13;4994790;28;20073;-64
2022/05/31 00:35:12;;;;;;;5.85;3.33;;;;;;;15.04;47.22;101256.66;4995345;28;20042;-64
2022/05/31 00:37:39;;;;;;;4.60;3.70;;;;;;;15.03;46.85;101255.81;4995252;28;20073;-64
2022/05/31 00:40:07;;;;;;;5.70;3.20;;;;;;;15.02;47.23;101259.50;4977704;28;20043;-64
2022/05/31 00:42:54;;;;;;;6.72;3.67;;;;;;;14.99;47.02;101251.63;4977351;28;20054;-65
2022/05/31 00:45:26;;;;;;;7.45;3.50;;;;;;;14.98;47.08;101252.63;4994780;28;20100;-63
2022/05/31 00:47:53;;;;;;;6.07;3.60;;;;;;;14.96;47.26;101251.88;4994728;28;20035;-65
2022/05/31 00:50:34;;;;;;;4.22;3.17;;;;;;;14.92;47.42;101248.59;4994644;28;20042;-64
2022/05/31 00:53:08;;;;;;;5.32;3.40;;;;;;;14.91;47.08;101248.72;4994419;28;20154;-64
2022/05/31 00:56:10;;;;;;;6.10;3.40;;;;;;;14.83;47.21;101252.00;4988069;28;20395;-65
2022/05/31 00:58:47;;;;;;;4.60;3.08;;;;;;;14.81;47.27;101250.41;4948526;28;20050;-64
2022/05/31 01:01:15;;;;;;;4.30;2.88;;;;;;;14.77;47.39;101257.06;4977091;28;20380;-64
2022/05/31 01:03:44;;;;;;;4.43;3.20;;;;;;;14.75;47.10;101251.78;4976880;28;20042;-64
2022/05/31 01:06:12;;;;;;;6.53;3.72;;;;;;;14.75;47.36;101256.34;4961022;28;20060;-64
2022/05/31 01:08:44;;;;;;;4.70;2.90;;;;;;;14.74;47.27;101260.88;4976908;28;20042;-63
2022/05/31 01:11:46;;;;;;;5.88;2.95;;;;;;;14.70;47.22;101256.72;4934262;29;20062;-63
2022/05/31 01:14:27;;;;;;;5.10;2.80;;;;;;;14.67;47.43;101261.50;4986961;28;20058;-63
2022/05/31 01:17:28;;;;;;;7.88;3.60;;;;;;;14.66;47.56;101259.78;4990062;28;20052;-63
2022/05/31 01:20:19;;;;;;;4.45;3.35;;;;;;;14.60;47.34;101256.59;4994258;28;20507;-63
2022/05/31 01:23:05;;;;;;;6.60;3.47;;;;;;;14.53;47.24;101247.28;4981757;28;20045;-64
2022/05/31 01:25:50;;;;;;;5.70;3.47;;;;;;;14.46;47.76;101246.06;4977102;28;20064;-64
2022/05/31 01:28:29;;;;;;;6.28;3.13;;;;;;;14.40;47.15;101249.22;4976733;28;20507;-64
2022/05/31 01:31:03;;;;;;;4.30;3.30;;;;;;;14.34;47.58;101244.31;4992861;28;20054;-64
2022/05/31 01:33:37;;;;;;;5.85;3.28;;;;;;;14.28;47.68;101253.78;4993876;28;20050;-63
2022/05/31 01:36:12;;;;;;;4.88;3.50;;;;;;;14.22;47.70;101254.25;4993965;28;20476;-63
2022/05/31 01:39:03;;;;;;;5.10;3.60;;;;;;;14.20;47.85;101248.13;4976669;28;20038;-63
2022/05/31 01:41:45;;;;;;;7.03;3.60;;;;;;;14.19;47.92;101242.84;4961934;28;20495;-64
2022/05/31 01:44:16;;;;;;;5.82;3.45;;;;;;;14.19;47.80;101243.69;4994001;28;20057;-63
2022/05/31 01:46:44;;;;;;;5.95;3.42;;;;;;;14.19;47.90;101249.09;4994281;28;20043;-64
2022/05/31 01:49:13;;;;;;;5.15;3.92;;;;;;;14.20;48.03;101244.56;4991919;28;20500;-64
2022/05/31 01:51:42;;;;;;;4.57;3.92;;;;;;;14.18;47.92;101247.38;4976239;28;20046;-64
2022/05/31 01:54:10;;;;;;;5.00;3.78;;;;;;;14.15;48.06;101236.81;4994067;28;20035;-64
2022/05/31 01:56:40;;;;;;;4.43;3.50;;;;;;;14.13;48.24;101233.38;4976243;28;20129;-63
2022/05/31 01:59:07;;;;;;;5.85;4.00;;;;;;;14.10;48.16;101235.44;4976261;28;20058;-64
2022/05/31 02:01:39;;;;;;;6.93;3.60;;;;;;;14.06;48.14;101236.66;4975976;28;20053;-63
2022/05/31 02:04:06;;;;;;;4.38;3.78;;;;;;;14.03;48.21;101240.47;4993850;28;20050;-63
2022/05/31 02:06:38;;;;;;;4.22;3.83;;;;;;;14.00;48.13;101233.47;4976111;28;20042;-64
2022/05/31 02:09:10;;;;;;;6.32;4.22;;;;;;;13.95;48.22;101232.13;4992530;28;20046;-64
2022/05/31 02:11:39;;;;;;;5.72;4.15;;;;;;;13.92;48.21;101235.06;4975116;28;20125;-64
2022/05/31 02:14:13;;;;;;;;;;;;;;;13.86;48.08;101235.53;4992880;28;20057;-63
2022/05/31 02:16:40;;;;;;;5.35;4.40;;;;;;;13.86;48.21;101233.72;4993359;28;19921;-64
2022/05/31 02:19:27;;;;;;;6.15;4.25;;;;;;;13.84;48.32;101235.66;4993936;28;20165;-64
2022/05/31 02:22:14;;;;;;;7.55;4.57;;;;;;;13.80;48.35;101236.88;4976547;28;20057;-63
2022/05/31 02:24:41;;;;;;;6.70;4.40;;;;;;;13.79;48.50;101239.72;4975985;28;20488;-63
2022/05/31 02:27:10;;;;;;;6.63;4.90;;;;;;;13.80;48.75;101247.69;4976157;28;20035;-63
2022/05/31 02:29:40;;;;;;;5.60;4.18;;;;;;;13.81;48.84;101244.00;4980068;28;20361;-63
2022/05/31 02:32:09;;;;;;;5.78;4.28;;;;;;;13.83;48.90;101246.59;4979507;28;20496;-64
2022/05/31 02:34:40;;;;;;;6.38;4.25;;;;;;;13.83;48.86;101244.75;4997257;28;20049;-64
2022/05/31 02:37:07;;;;;;;5.28;4.45;;;;;;;13.85;48.83;101233.81;4979824;28;20133;-64
2022/05/31 02:39:34;;;;;;;7.35;4.55;;;;;;;13.86;48.97;101239.09;4979798;28;20073;-63
2022/05/31 02:42:02;;;;;;;4.90;4.20;;;;;;;13.88;48.97;101238.97;4996877;28;20052;-64
2022/05/31 02:44:29;;;;;;;6.03;4.90;;;;;;;13.90;48.90;101234.31;4979593;28;20096;-64
2022/05/31 02:46:57;;;;;;;7.18;5.07;;;;;;;13.91;48.84;101231.50;4979832;28;20101;-63
2022/05/31 02:49:24;;;;;;;5.05;4.40;;;;;;;13.91;48.97;101223.41;4997477;28;20466;-64
2022/05/31 02:51:52;;;;;;;5.43;4.43;;;;;;;13.90;49.18;101221.69;4979393;28;20046;-63
2022/05/31 02:54:20;;;;;;;5.55;4.50;;;;;;;13.88;49.08;101228.19;4978773;28;20081;-64
2022/05/31 02:57:09;;;;;;;8.45;4.97;;;;;;;13.87;49.04;101229.16;4996785;28;20398;-64
2022/05/31 02:59:58;;;;;;;5.57;4.95;;;;;;;13.87;49.31;101229.16;4996729;28;20052;-64
2022/05/31 03:02:43;;;;;;;7.15;4.75;;;;;;;13.86;49.16;101219.34;4996056;28;20132;-64
2022/05/31 03:05:30;;;;;;;7.05;5.13;;;;;;;13.84;49.50;101224.00;4997109;28;20408;-64
2022/05/31 03:08:08;;;;;;;6.05;5.40;;;;;;;13.84;49.55;101227.56;4966666;28;20141;-64
2022/05/31 03:10:52;;;;;;;7.97;5.45;;;;;;;13.85;49.70;101220.31;4978713;28;20527;-64
2022/05/31 03:13:23;;;;;;;8.00;5.28;;;;;;;13.85;49.64;101226.59;4984179;28;20114;-65
2022/05/31 03:15:55;;;;;;;8.80;5.35;;;;;;;13.87;49.66;101227.31;4996592;28;20050;-64
2022/05/31 03:18:32;;;;;;;9.05;5.32;;;;;;;13.87;49.94;101218.38;4983958;28;20030;-64
2022/05/31 03:21:04;;;;;;;6.75;5.30;;;;;;;13.88;49.96;101218.25;4996540;28;20050;-64
2022/05/31 03:23:34;;;;;;;7.60;5.05;;;;;;;13.90;49.92;101221.69;4996044;28;20038;-64
2022/05/31 03:26:05;;;;;;;8.80;5.72;;;;;;;13.92;50.20;101213.47;4979291;28;20392;-64
2022/05/31 03:28:33;;;;;;;7.85;5.22;;;;;;;13.95;50.24;101219.47;4983550;28;20038;-64
2022/05/31 03:31:01;;;;;;;7.85;5.40;;;;;;;14.00;50.12;101217.28;4997630;28;20038;-64
2022/05/31 03:33:28;;;;;;;8.30;5.30;;;;;;;14.03;50.14;101218.00;4996047;28;20050;-64
2022/05/31 03:35:55;;;;;;;8.77;5.03;;;;;;;14.05;50.33;101218.75;4978563;28;20046;-64
2022/05/31 03:38:27;;;;;;;7.25;5.72;;;;;;;14.08;50.18;101215.81;4978560;28;20039;-64
2022/05/31 03:40:56;;;;;;;7.95;5.18;;;;;;;14.08;50.10;101216.66;4977924;28;20500;-64
2022/05/31 03:43:31;;;;;;;6.28;5.43;;;;;;;14.10;50.27;101213.84;4978341;28;20092;-64
2022/05/31 03:46:27;;;;;;;9.20;5.53;;;;;;;14.11;50.17;101208.31;4982982;28;20113;-64
2022/05/31 03:48:54;;;;;;;11.98;6.28;;;;;;;14.14;50.38;101212.63;4995635;28;20503;-64
2022/05/31 03:51:21;;;;;;;8.02;5.47;;;;;;;14.15;50.14;101209.81;4978635;28;20042;-64
2022/05/31 03:53:51;;;;;;;7.80;5.90;;;;;;;14.16;50.40;101210.69;4978022;28;20157;-63
2022/05/31 03:56:24;;;;;;;7.20;5.30;;;;;;;14.16;50.20;101219.63;4978653;28;20043;-63
2022/05/31 03:58:51;;;;;;;7.47;5.50;;;;;;;14.17;50.03;101215.94;4978131;28;20046;-65
2022/05/31 04:01:20;;;;;;;7.78;6.15;;;;;;;14.18;50.50;101216.81;4993990;28;20070;-64
2022/05/31 04:03:49;;;;;;;10.63;6.70;;;;;;;14.19;50.36;101208.59;4978050;28;20042;-63
2022/05/31 04:06:16;;;;;;;9.15;5.55;;;;;;;14.20;50.41;101209.44;4994363;28;20042;-64
2022/05/31 04:08:42;;;;;;;10.18;6.38;;;;;;;14.22;50.29;101208.34;4978202;28;20070;-64
2022/05/31 04:11:10;;;;;;;9.55;6.03;;;;;;;14.23;50.57;101204.66;4977768;28;20555;-64
2022/05/31 04:13:36;;;;;;;8.85;6.03;;;;;;;14.23;50.66;101207.34;4993984;28;20054;-64
2022/05/31 04:16:22;;;;;;;6.47;5.57;;;;;;;14.24;50.54;101208.22;4995787;28;20097;-65
2022/05/31 04:18:55;;;;;;;6.85;6.05;;;;;;;14.28;50.60;101210.53;4995406;28;20488;-64
2022/05/31 04:21:21;;;;;;;9.80;6.55;;;;;;;14.31;50.50;101217.53;4995412;28;20041;-64
2022/05/31 04:23:58;;;;;;;6.63;5.85;;;;;;;14.29;50.56;101203.31;4994854;28;20489;-64
2022/05/31 04:26:47;;;;;;;8.55;6.55;;;;;;;14.30;50.47;101207.72;4995633;28;20077;-64
2022/05/31 04:29:34;;;;;;;8.05;6.43;;;;;;;14.35;50.74;101204.66;4995424;28;20061;-64
2022/05/31 04:32:00;;;;;;;8.55;6.78;;;;;;;14.38;50.75;101215.19;4995087;28;20038;-63
2022/05/31 04:34:56;;;;;;;7.82;6.45;;;;;;;14.43;50.71;101219.28;4977830;28;20420;-63
2022/05/31 04:37:24;;;;;;;8.93;6.18;;;;;;;14.46;50.65;101223.56;4977399;28;20142;-63
2022/05/31 04:40:15;;;;;;;7.28;5.97;;;;;;;14.48;50.76;101216.19;4977693;28;20039;-63
2022/05/31 04:42:42;;;;;;;9.32;6.57;;;;;;;14.49;50.80;101212.53;4995165;28;20054;-63
2022/05/31 04:45:41;;;;;;;9.15;6.55;;;;;;;14.47;50.85;101211.78;4992479;28;20080;-63
2022/05/31 04:48:28;;;;;;;8.77;6.72;;;;;;;14.47;50.66;101222.59;4994686;28;20074;-63
2022/05/31 04:50:55;;;;;;;9.27;6.68;;;;;;;14.45;50.75;101220.03;4977503;28;20098;-63
2022/05/31 04:53:25;;;;;;;8.90;7.15;;;;;;;14.47;50.88;101220.75;4976958;28;20082;-62
2022/05/31 04:56:19;;;;;;;11.55;6.72;;;;;;;14.48;50.74;101213.50;4977633;28;20440;-63
2022/05/31 04:58:50;;;;;;;11.60;7.20;;;;;;;14.50;50.74;101212.41;4976919;28;20137;-63
2022/05/31 05:01:18;;;;;;;9.70;6.90;;;;;;;14.53;51.04;101212.13;4980251;28;20125;-64
2022/05/31 05:03:47;;;;;;;8.75;7.10;;;;;;;14.54;50.95;101208.47;4977005;28;20403;-64
2022/05/31 05:06:16;;;;;;;8.50;7.07;;;;;;;14.54;50.91;101205.75;4976982;28;20054;-64
2022/05/31 05:08:47;;;;;;;8.43;7.30;;;;;;;14.54;51.29;101200.34;4976960;28;20049;-64
2022/05/31 05:11:16;;;;;;;8.63;6.88;;;;;;;14.54;50.89;101205.75;4977089;28;20042;-64
2022/05/31 05:13:54;;;;;;;9.18;6.75;;;;;;;14.56;51.25;101200.22;4961998;28;20558;-65
2022/05/31 05:16:49;;;;;;;9.77;7.10;;;;;;;14.58;51.15;101207.22;4976968;28;20089;-65
2022/05/31 05:19:16;;;;;;;9.18;7.40;;;;;;;14.60;51.17;101207.94;4976768;28;20050;-65
2022/05/31 05:21:47;;;;;;;9.23;7.43;;;;;;;14.62;50.89;101203.28;4977014;28;20407;-65
2022/05/31 05:24:15;;;;;;;9.18;7.47;;;;;;;14.63;51.20;101205.00;4992884;28;20046;-64
2022/05/31 05:27:01;;;;;;;13.48;8.35;;;;;;;14.68;51.30;101201.06;4992800;28;20042;-64
2022/05/31 05:32:43;;;;;;;8.20;7.38;;;;;;;14.75;51.23;101196.84;4992646;28;20471;-64
2022/05/31 05:35:24;;;;;;;10.95;7.70;;;;;;;14.79;51.04;101203.72;4980433;28;20089;-64
2022/05/31 05:38:06;;;;;;;9.35;7.50;;;;;;;14.83;51.33;101205.19;4976629;28;20042;-64
2022/05/31 05:40:46;;;;;;;9.38;8.30;;;;;;;14.85;51.37;101204.06;4976742;28;20419;-64
2022/05/31 05:43:15;;;;;;;12.63;8.52;;;;;;;14.86;51.26;101207.63;4976223;28;20070;-64
2022/05/31 05:46:01;;;;;;;12.50;7.65;;;;;;;14.88;51.38;101213.81;4979252;28;20050;-65
2022/05/31 05:48:28;;;;;;;10.65;7.90;;;;;;;14.91;51.22;101213.56;4993894;28;20042;-65
2022/05/31 05:50:55;;;;;;;11.23;8.40;;;;;;;14.95;51.25;101212.31;4976554;28;20070;-65
2022/05/31 05:53:40;;;;;;;8.63;7.20;;;;;;;14.98;50.94;101216.59;4993639;28;20113;-65
2022/05/31 05:56:26;;;;;;;11.80;7.65;;;;;;;15.01;51.38;101211.78;4994269;28;20519;-65
2022/05/31 05:59:28;;;;;;;10.75;8.15;;;;;;;15.07;51.28;101208.56;4952917;29;20563;-63
2022/05/31 06:02:32;;;;;;;11.98;7.72;;;;;;;15.11;50.97;101215.44;4914017;29;20076;-65
2022/05/31 06:05:32;;;;;;;11.32;8.20;;;;;;;15.15;50.97;101206.06;4976601;28;20047;-64
2022/05/31 06:08:05;;;;;;;10.52;8.43;;;;;;;15.17;51.18;101208.66;4993120;28;20035;-64
2022/05/31 06:10:52;;;;;;;9.40;7.82;;;;;;;15.16;51.18;101205.09;4975939;28;20064;-64
2022/05/31 06:13:29;;;;;;;9.50;8.18;;;;;;;15.21;51.39;101207.41;4964855;28;20073;-63
2022/05/31 06:15:56;;;;;;;8.98;7.32;;;;;;;15.21;51.61;101204.69;4992277;28;20494;-64
2022/05/31 06:18:32;;;;;;;12.02;8.07;;;;;;;15.23;51.66;101203.59;4992448;28;20042;-64
2022/05/31 06:21:04;;;;;;;9.90;7.35;;;;;;;15.25;51.32;101204.31;4975674;28;20093;-64
2022/05/31 06:23:36;;;;;;;9.80;7.25;;;;;;;15.27;51.62;101199.63;4975933;28;20077;-63
2022/05/31 06:26:05;;;;;;;8.77;7.22;;;;;;;15.30;51.67;101208.47;4992233;28;20386;-63
2022/05/31 06:28:40;;;;;;;11.30;7.53;;;;;;;15.32;51.35;101204.66;4976074;28;20042;-63
2022/05/31 06:31:07;;;;;;;9.27;6.70;;;;;;;15.35;51.56;101201.69;4975601;28;20455;-64
2022/05/31 06:33:34;;;;;;;8.68;7.32;;;;;;;15.40;51.81;101201.28;4967268;28;20054;-62
2022/05/31 06:36:02;;;;;;;8.45;7.20;;;;;;;15.42;51.75;101210.13;4975831;28;20122;-62
2022/05/31 06:38:29;;;;;;;9.25;7.05;;;;;;;15.44;51.77;101200.88;4993330;28;20050;-63
2022/05/31 06:40:57;;;;;;;9.15;7.25;;;;;;;15.45;51.56;101210.72;4975524;28;20081;-62
2022/05/31 06:43:53;;;;;;;9.82;7.72;;;;;;;15.48;51.50;101206.91;4969626;28;20047;-62
2022/05/31 06:46:46;;;;;;;10.85;7.38;;;;;;;15.50;51.30;101205.78;4966079;28;20054;-62
2022/05/31 06:49:39;;;;;;;11.30;7.00;;;;;;;15.54;51.59;101203.66;4993041;28;20052;-62
2022/05/31 06:58:34;;;;;;;12.13;7.88;;;;;;;15.56;52.13;101207.09;4989577;28;20177;-63
2022/05/31 07:01:06;;;;;;;9.88;7.78;;;;;;;15.58;52.10;101199.72;4975930;28;20500;-66
2022/05/31 07:03:33;;;;;;;9.45;7.57;;;;;;;15.63;51.93;101204.78;4974972;28;20055;-64
2022/05/31 07:06:00;;;;;;;9.80;7.03;;;;;;;15.69;51.89;101196.97;4976660;28;20113;-64
2022/05/31 07:08:27;;;;;;;14.55;7.75;;;;;;;15.76;52.22;101194.59;4975857;28;20047;-63
2022/05/31 07:10:56;;;;;;;11.95;8.27;;;;;;;15.81;52.16;101193.19;4993110;28;20432;-64
2022/05/31 07:13:42;;;;;;;9.98;7.28;;;;;;;15.90;51.98;101199.66;4992522;28;20163;-64
2022/05/31 07:16:33;;;;;;;9.32;6.80;;;;;;;15.98;51.88;101198.97;4996478;28;20057;-64
2022/05/31 07:19:20;;;;;;;8.90;7.10;;;;;;;16.05;52.15;101190.19;4996230;28;20061;-64
2022/05/31 07:21:47;;;;;;;9.77;7.07;;;;;;;16.12;51.88;101187.78;4978491;28;20049;-64
2022/05/31 07:24:14;;;;;;;10.00;7.07;;;;;;;16.16;51.66;101184.66;4978484;28;20447;-64
2022/05/31 07:27:15;;;;;;;8.48;6.55;;;;;;;16.25;51.85;101182.13;4980847;28;20594;-64
2022/05/31 07:29:42;;;;;;;10.50;6.75;;;;;;;16.32;51.97;101192.28;4978766;28;20047;-64
2022/05/31 07:32:09;;;;;;;8.85;6.68;;;;;;;16.38;51.71;101183.63;4981231;28;20407;-64
2022/05/31 07:34:56;;;;;;;6.65;5.95;;;;;;;16.46;51.46;101188.34;4981046;28;20053;-65
2022/05/31 07:37:25;;;;;;;9.70;6.88;;;;;;;16.54;51.64;101193.94;4979072;28;20089;-64
2022/05/31 07:39:52;;;;;;;8.15;6.13;;;;;;;16.61;51.47;101183.41;4978487;28;20188;-65
2022/05/31 07:42:19;;;;;;;6.75;5.38;;;;;;;16.67;51.41;101189.16;4995918;28;20049;-65
2022/05/31 07:44:51;;;;;;;8.82;6.43;;;;;;;16.74;51.57;101192.16;4978117;28;20078;-65
2022/05/31 07:47:18;;;;;;;8.55;5.75;;;;;;;16.82;51.36;101195.03;4978523;28;20045;-65
2022/05/31 07:49:44;;;;;;;7.53;5.85;;;;;;;16.88;51.36;101188.19;4962371;28;20452;-64
2022/05/31 07:52:29;;;;;;;9.73;5.63;;;;;;;16.97;50.88;101184.63;4996106;28;20089;-64
2022/05/31 07:55:14;;;;;;;12.50;5.97;;;;;;;17.07;51.15;101186.31;4995509;28;20532;-64
2022/05/31 08:01:25;;;;;;;8.15;5.18;;;;;;;17.29;50.93;101184.34;4994800;28;20039;-64
2022/05/31 08:03:57;;;;;;;8.35;5.90;;;;;;;17.39;50.98;101183.34;4977101;28;20057;-63
2022/05/31 08:06:29;;;;;;;6.63;5.38;;;;;;;17.49;51.02;101175.19;4995484;28;20057;-63
2022/05/31 08:08:57;;;;;;;6.47;5.22;;;;;;;17.64;50.77;101184.56;4995429;28;20042;-63
2022/05/31 08:11:27;;;;;;;7.00;4.65;;;;;;;17.76;50.59;101183.44;4995454;28;20042;-65
2022/05/31 08:13:54;;;;;;;6.97;4.93;;;;;;;17.93;50.39;101176.41;4995026;28;20082;-64
2022/05/31 08:16:24;;;;;;;5.55;4.65;;;;;;;18.09;49.99;101173.06;4995145;28;20057;-65
2022/05/31 08:18:51;;;;;;;7.07;4.47;;;;;;;18.30;50.39;101181.81;4995405;28;20061;-64
2022/05/31 08:21:27;;;;;;;10.18;4.60;;;;;;;18.52;50.18;101185.13;4995250;28;20141;-63
2022/05/31 08:23:59;;;;;;;5.75;4.05;;;;;;;18.75;49.48;101175.59;4995075;28;20054;-63
2022/05/31 08:26:26;;;;;;;25.02;7.55;;;;;;;18.98;49.05;101174.13;4994642;28;20050;-63
2022/05/31 08:28:53;;;;;;;336.05;77.05;;;;;;;19.18;48.61;101166.66;4995144;28;20507;-63
2022/05/31 08:31:31;;;;;;;201.00;42.75;;;;;;;19.33;48.10;101162.38;4995263;28;20043;-62
2022/05/31 08:33:58;;;;;;;51.72;13.43;;;;;;;19.55;48.03;101163.78;4994303;28;20074;-63
2022/05/31 08:36:25;;;;;;;91.57;25.35;;;;;;;19.75;47.94;101166.28;4994902;28;20042;-63
2022/05/31 08:38:51;;;;;;;93.80;21.27;;;;;;;19.91;47.46;101161.78;4994890;28;20102;-64
2022/05/31 08:41:30;;;;;;;64.28;17.52;;;;;;;20.06;47.03;101156.59;4977400;28;20049;-64
2022/05/31 08:43:59;;;;;;;38.42;10.50;;;;;;;20.22;46.55;101159.41;4994629;28;20108;-63
2022/05/31 08:46:51;;;;;;;15.60;6.35;;;;;;;20.43;46.39;101152.69;4994913;28;20125;-64
2022/05/31 08:52:28;;;;;;;10.75;5.38;;;;;;;20.83;45.29;101155.56;4982039;28;20510;-65
2022/05/31 08:57:58;;;;;;;8.73;4.25;;;;;;;21.10;44.98;101154.41;4977145;28;20042;-64
2022/05/31 09:00:33;;;;;;;4.63;3.58;;;;;;;21.28;44.37;101151.53;4977118;28;20385;-64
2022/05/31 09:03:29;;;;;;;6.10;3.67;;;;;;;21.48;44.27;101152.03;4994087;28;20133;-64
2022/05/31 09:06:02;;;;;;;6.75;4.10;;;;;;;21.72;44.06;101160.22;4992218;28;20066;-64
2022/05/31 09:08:46;;;;;;;6.07;3.85;;;;;;;21.91;43.68;101158.13;4994359;28;20373;-64
2022/05/31 09:11:26;;;;;;;8.52;3.75;;;;;;;22.08;43.37;101151.59;4994185;28;20043;-64
2022/05/31 09:14:05;;;;;;;5.30;4.03;;;;;;;22.24;42.83;101148.81;4985972;28;20046;-66
2022/05/31 09:16:58;;;;;;;5.63;4.30;;;;;;;22.34;42.49;101156.81;4994010;28;20109;-64
2022/05/31 09:19:40;;;;;;;5.88;4.07;;;;;;;22.39;42.02;101151.66;4994199;28;20076;-66
2022/05/31 09:22:07;;;;;;;4.68;3.70;;;;;;;22.48;42.05;101151.44;4993916;28;20054;-63
2022/05/31 09:24:42;;;;;;;5.80;3.50;;;;;;;22.58;41.54;101150.38;4993724;28;20034;-65
2022/05/31 09:27:21;;;;;;;4.20;3.17;;;;;;;22.67;41.52;101152.88;4994128;28;20507;-65
2022/05/31 09:30:02;;;;;;;4.28;3.25;;;;;;;22.74;41.16;101148.38;4994029;28;20047;-65
2022/05/31 09:33:07;;;;;;;4.30;3.05;;;;;;;22.78;40.65;101149.72;4993507;28;20042;-66
2022/05/31 09:35:41;;;;;;;3.55;2.78;;;;;;;22.81;40.65;101146.66;5003654;28;20413;-65
2022/05/31 09:38:40;;;;;;;3.55;3.20;;;;;;;22.86;40.63;101156.22;4992991;28;20042;-65
2022/05/31 09:41:26;;;;;;;4.63;2.55;;;;;;;22.91;39.69;101145.56;4993316;28;20081;-66
2022/05/31 09:44:15;;;;;;;4.47;2.88;;;;;;;22.90;39.79;101155.69;4980909;28;20042;-65
2022/05/31 09:46:44;;;;;;;2.53;2.10;;;;;;;22.94;39.66;101142.47;4993770;28;20049;-63
2022/05/31 09:49:16;;;;;;;6.15;2.47;;;;;;;22.93;39.13;101143.50;4993858;28;20515;-64
2022/05/31 09:51:43;;;;;;;6.10;2.72;;;;;;;22.95;39.09;101139.53;4993252;28;20042;-65
2022/05/31 09:57:24;;;;;;;3.97;2.53;;;;;;;23.12;38.91;101135.69;4977304;28;20129;-64
2022/05/31 10:00:14;;;;;;;4.28;3.35;;;;;;;23.23;38.58;101148.09;4993515;28;20050;-64
2022/05/31 10:03:14;;;;;;;3.40;3.08;;;;;;;23.25;38.32;101146.00;4977104;28;20089;-64
2022/05/31 10:05:45;;;;;;;3.92;3.50;;;;;;;23.31;38.21;101138.94;4990972;28;20480;-64
2022/05/31 10:08:21;;;;;;;5.45;3.47;;;;;;;23.36;38.52;101134.59;4993722;28;20376;-64
2022/05/31 10:10:48;;;;;;;3.40;3.10;;;;;;;23.50;38.21;101134.81;4993468;28;20045;-65
2022/05/31 10:13:42;;;;;;;3.85;2.80;;;;;;;23.63;37.68;101135.91;4993458;28;20038;-65
2022/05/31 10:16:10;;;;;;;4.18;3.05;;;;;;;23.76;37.17;101130.63;4994013;28;20390;-64
2022/05/31 10:18:48;;;;;;;5.05;3.20;;;;;;;23.78;37.21;101122.22;4994003;28;20053;-64
2022/05/31 10:21:33;;;;;;;3.20;2.90;;;;;;;23.84;37.08;101123.38;4976017;28;20058;-64
2022/05/31 10:24:17;;;;;;;4.35;3.20;;;;;;;23.97;36.42;101124.44;4993319;28;20081;-65
2022/05/31 10:27:23;;;;;;;4.82;2.80;;;;;;;24.08;36.16;101125.84;4994014;28;20073;-65
2022/05/31 10:30:02;;;;;;;5.40;3.30;;;;;;;24.19;36.17;101116.28;4976138;28;20085;-64
2022/05/31 10:33:12;;;;;;;5.43;3.00;;;;;;;24.27;36.22;101125.28;4962431;28;20115;-65
2022/05/31 10:35:43;;;;;;;4.43;3.22;;;;;;;24.37;35.96;101124.97;4983278;28;20073;-65
2022/05/31 10:38:29;;;;;;;4.47;3.45;;;;;;;24.51;35.89;101131.47;4993677;28;20049;-65
2022/05/31 10:41:05;;;;;;;4.35;3.70;;;;;;;24.64;35.69;101124.28;4975948;28;20046;-65
2022/05/31 10:43:57;;;;;;;4.63;3.88;;;;;;;24.76;35.61;101126.50;4992926;28;20042;-65
2022/05/31 10:46:28;;;;;;;3.67;3.22;;;;;;;24.93;35.76;101122.47;4993707;28;20181;-66
2022/05/31 10:48:57;;;;;;;10.07;4.22;;;;;;;25.09;35.84;101122.22;4994802;28;20130;-65
2022/05/31 10:51:42;;;;;;;6.43;3.95;;;;;;;25.21;35.35;101115.16;4996905;28;20042;-65
2022/05/31 10:54:46;;;;;;;6.28;3.75;;;;;;;25.34;35.39;101117.19;4989104;28;20034;-65
2022/05/31 10:57:41;;;;;;;6.10;4.20;;;;;;;25.45;35.07;101116.66;4996994;28;20035;-65
2022/05/31 11:00:18;;;;;;;4.53;3.60;;;;;;;25.50;34.61;101107.78;4996572;28;20488;-65
2022/05/31 11:03:00;;;;;;;4.68;4.00;;;;;;;25.50;34.41;101105.03;4996479;28;20042;-65
2022/05/31 11:05:50;;;;;;;5.47;3.97;;;;;;;25.49;34.28;101100.59;4989517;28;20038;-65
2022/05/31 11:11:30;;;;;;;4.82;3.90;;;;;;;25.40;33.35;101088.91;4996743;28;20503;-65
2022/05/31 11:14:15;;;;;;;5.63;4.32;;;;;;;25.36;33.12;101093.09;4996419;28;20061;-65
2022/05/31 11:17:07;;;;;;;5.32;3.90;;;;;;;25.31;33.52;101095.59;4996894;28;20042;-65
2022/05/31 11:19:51;;;;;;;4.03;3.20;;;;;;;25.27;33.23;101097.03;4996584;28;20074;-65
2022/05/31 11:22:46;;;;;;;7.10;3.60;;;;;;;25.30;33.30;101107.66;4987998;28;20038;-65
2022/05/31 11:25:22;;;;;;;4.63;3.78;;;;;;;25.28;33.24;101094.09;4996529;28;20299;-65
2022/05/31 11:28:26;;;;;;;7.03;4.00;;;;;;;25.16;32.93;101101.16;4996418;28;20511;-65
2022/05/31 11:31:11;;;;;;;6.90;3.63;;;;;;;25.00;32.73;101098.69;4996551;28;20042;-65
2022/05/31 11:34:19;;;;;;;6.93;4.10;;;;;;;24.92;33.13;101096.88;4983101;28;20488;-65
2022/05/31 11:37:20;;;;;;;5.25;3.63;;;;;;;24.89;33.43;101096.44;4951575;28;20407;-64
2022/05/31 11:40:10;;;;;;;6.45;4.90;;;;;;;24.86;33.39;101099.56;4996182;28;20042;-65
2022/05/31 11:42:37;;;;;;;5.93;4.20;;;;;;;24.67;33.22;101107.41;4978887;28;20038;-64
2022/05/31 11:45:13;;;;;;;6.13;4.20;;;;;;;24.59;33.14;101104.78;4996048;28;20065;-65
2022/05/31 11:48:01;;;;;;;4.30;3.90;;;;;;;24.55;33.07;101100.72;4978820;28;20039;-64
2022/05/31 11:51:19;;;;;;;5.28;4.78;;;;;;;24.51;33.27;101107.63;4996091;28;20050;-64
2022/05/31 11:53:52;;;;;;;5.25;4.10;;;;;;;24.48;33.50;101110.75;4962960;28;20061;-65
2022/05/31 11:56:57;;;;;;;6.40;4.80;;;;;;;24.40;33.83;101106.22;4995996;28;20145;-65
2022/05/31 11:59:53;;;;;;;6.28;4.97;;;;;;;24.41;33.84;101104.34;4967688;28;20049;-64
2022/05/31 12:02:26;;;;;;;5.30;4.22;;;;;;;24.34;33.59;101101.50;4983078;28;20508;-64
2022/05/31 12:05:01;;;;;;;7.32;4.35;;;;;;;24.25;33.61;101102.63;4978454;28;20443;-64
2022/05/31 12:07:34;;;;;;;5.45;4.18;;;;;;;24.20;33.88;101102.34;4995849;28;20081;-64
2022/05/31 12:10:11;;;;;;;5.15;4.05;;;;;;;24.19;33.91;101103.41;4995659;28;20048;-64
2022/05/31 12:12:39;;;;;;;5.18;4.32;;;;;;;24.21;34.09;101103.22;4995284;28;20045;-64
2022/05/31 12:15:22;;;;;;;7.05;4.53;;;;;;;24.22;34.15;101107.66;4995563;28;20050;-65
2022/05/31 12:17:52;;;;;;;6.10;4.72;;;;;;;24.18;33.99;101106.34;4995499;28;20050;-65
2022/05/31 12:20:31;;;;;;;7.35;4.80;;;;;;;24.06;34.27;101115.06;4995232;28;20049;-64
2022/05/31 12:23:04;;;;;;;7.40;5.28;;;;;;;24.01;34.78;101113.94;4977963;28;20057;-64
2022/05/31 12:25:36;;;;;;;8.32;5.78;;;;;;;23.97;34.68;101116.19;4995638;28;20050;-64
2022/05/31 12:28:18;;;;;;;5.55;4.47;;;;;;;23.93;34.43;101114.03;4995307;28;20045;-65
2022/05/31 12:30:52;;;;;;;6.20;2.38;;;;;;;23.85;34.73;101122.34;4995549;28;20141;-64
2022/05/31 12:33:26;;;;;;;3.38;1.95;;;;;;;23.63;34.02;101124.09;4995271;28;20125;-64